sensor_id;sensor_type;location;lat;lon;timestamp;temperature;humidity
23137;DHT22;11737;50.558;7.258;2023-02-01T00:01:09;6.80;99.90
23137;DHT22;11737;50.558;7.258;2023-02-01T00:03:37;6.90;99.90
23137;DHT22;11737;50.558;7.258;2023-02-01T00:06:04;6.90;99.90
23137;DHT22;11737;50.558;7.258;2023-02-01T00:08:33;6.70;99.90
23137;DHT22;11737;50.558;7.258;2023-02-01T00:11:04;6.60;99.90
23137;DHT22;11737;50.558;7.258;2023-02-01T00:13:33;6.80;99.90
23137;DHT22;11737;50.558;7.258;2023-02-01T00:16:05;6.70;99.90
23137;DHT22;11737;50.558;7.258;2023-02-01T00:18:34;6.70;99.90
23137;DHT22;11737;50.558;7.258;2023-02-01T00:21:02;6.70;99.90
23137;DHT22;11737;50.558;7.258;2023-02-01T00:23:32;6.80;99.90
23137;DHT22;11737;50.558;7.258;2023-02-01T00:26:04;6.90;99.90
23137;DHT22;11737;50.558;7.258;2023-02-01T00:28:33;7.10;99.90
23137;DHT22;11737;50.558;7.258;2023-02-01T00:31:03;7.00;99.90
23137;DHT22;11737;50.558;7.258;2023-02-01T00:33:32;7.10;99.90
23137;DHT22;11737;50.558;7.258;2023-02-01T00:38:48;6.90;99.90
23137;DHT22;11737;50.558;7.258;2023-02-01T00:41:20;6.80;99.90
23137;DHT22;11737;50.558;7.258;2023-02-01T00:43:49;6.70;99.90
23137;DHT22;11737;50.558;7.258;2023-02-01T00:46:18;6.60;99.90
23137;DHT22;11737;50.558;7.258;2023-02-01T00:48:46;6.50;99.90
23137;DHT22;11737;50.558;7.258;2023-02-01T00:51:19;6.50;99.90
23137;DHT22;11737;50.558;7.258;2023-02-01T00:53:48;6.70;99.90
23137;DHT22;11737;50.558;7.258;2023-02-01T00:56:16;7.10;99.90
23137;DHT22;11737;50.558;7.258;2023-02-01T00:58:44;7.30;99.90
23137;DHT22;11737;50.558;7.258;2023-02-01T01:01:14;7.40;99.90
23137;DHT22;11737;50.558;7.258;2023-02-01T01:03:45;7.60;99.90
23137;DHT22;11737;50.558;7.258;2023-02-01T01:06:15;7.60;99.90
23137;DHT22;11737;50.558;7.258;2023-02-01T01:08:43;7.80;99.90
23137;DHT22;11737;50.558;7.258;2023-02-01T01:11:13;8.00;99.90
23137;DHT22;11737;50.558;7.258;2023-02-01T01:13:41;8.20;99.90
23137;DHT22;11737;50.558;7.258;2023-02-01T01:16:11;8.30;99.90
23137;DHT22;11737;50.558;7.258;2023-02-01T01:18:38;8.40;99.90
23137;DHT22;11737;50.558;7.258;2023-02-01T01:21:07;8.50;99.90
23137;DHT22;11737;50.558;7.258;2023-02-01T01:23:35;8.60;99.90
23137;DHT22;11737;50.558;7.258;2023-02-01T01:26:15;8.70;99.90
23137;DHT22;11737;50.558;7.258;2023-02-01T01:28:43;8.70;99.90
23137;DHT22;11737;50.558;7.258;2023-02-01T01:31:12;8.80;99.90
23137;DHT22;11737;50.558;7.258;2023-02-01T01:33:40;8.90;99.90
23137;DHT22;11737;50.558;7.258;2023-02-01T01:36:09;8.90;99.90
23137;DHT22;11737;50.558;7.258;2023-02-01T01:38:42;8.90;99.90
23137;DHT22;11737;50.558;7.258;2023-02-01T01:41:08;9.00;99.90
23137;DHT22;11737;50.558;7.258;2023-02-01T01:46:44;8.90;99.90
23137;DHT22;11737;50.558;7.258;2023-02-01T01:49:23;8.90;99.90
23137;DHT22;11737;50.558;7.258;2023-02-01T01:51:53;8.90;99.90
23137;DHT22;11737;50.558;7.258;2023-02-01T01:57:18;8.90;99.90
23137;DHT22;11737;50.558;7.258;2023-02-01T01:59:50;8.90;99.90
23137;DHT22;11737;50.558;7.258;2023-02-01T02:02:17;8.90;99.90
23137;DHT22;11737;50.558;7.258;2023-02-01T02:04:46;9.00;99.90
23137;DHT22;11737;50.558;7.258;2023-02-01T02:07:17;9.00;99.90
23137;DHT22;11737;50.558;7.258;2023-02-01T02:09:45;9.10;99.90
23137;DHT22;11737;50.558;7.258;2023-02-01T02:12:13;9.10;99.90
23137;DHT22;11737;50.558;7.258;2023-02-01T02:14:40;9.10;99.90
23137;DHT22;11737;50.558;7.258;2023-02-01T02:20:13;9.20;99.90
23137;DHT22;11737;50.558;7.258;2023-02-01T02:23:10;9.20;99.90
23137;DHT22;11737;50.558;7.258;2023-02-01T02:28:40;9.20;99.90
23137;DHT22;11737;50.558;7.258;2023-02-01T02:31:36;9.20;99.90
23137;DHT22;11737;50.558;7.258;2023-02-01T02:36:50;9.00;99.90
23137;DHT22;11737;50.558;7.258;2023-02-01T02:45:01;8.70;99.90
23137;DHT22;11737;50.558;7.258;2023-02-01T02:47:46;8.60;99.90
23137;DHT22;11737;50.558;7.258;2023-02-01T02:50:32;8.70;99.90
23137;DHT22;11737;50.558;7.258;2023-02-01T02:53:18;8.70;99.90
23137;DHT22;11737;50.558;7.258;2023-02-01T02:56:06;8.80;99.90
23137;DHT22;11737;50.558;7.258;2023-02-01T02:58:53;8.90;99.90
23137;DHT22;11737;50.558;7.258;2023-02-01T03:01:40;9.10;99.90
23137;DHT22;11737;50.558;7.258;2023-02-01T03:04:26;9.10;99.90
23137;DHT22;11737;50.558;7.258;2023-02-01T03:06:54;9.20;99.90
23137;DHT22;11737;50.558;7.258;2023-02-01T03:09:33;9.20;99.90
23137;DHT22;11737;50.558;7.258;2023-02-01T03:15:11;9.30;99.90
23137;DHT22;11737;50.558;7.258;2023-02-01T03:17:41;9.40;99.90
23137;DHT22;11737;50.558;7.258;2023-02-01T03:20:11;9.40;99.90
23137;DHT22;11737;50.558;7.258;2023-02-01T03:22:41;9.40;99.90
23137;DHT22;11737;50.558;7.258;2023-02-01T03:25:15;9.40;99.90
23137;DHT22;11737;50.558;7.258;2023-02-01T03:27:59;9.50;99.90
23137;DHT22;11737;50.558;7.258;2023-02-01T03:30:25;9.40;99.90
23137;DHT22;11737;50.558;7.258;2023-02-01T03:32:55;9.40;99.90
23137;DHT22;11737;50.558;7.258;2023-02-01T03:35:32;9.40;99.90
23137;DHT22;11737;50.558;7.258;2023-02-01T03:41:33;9.40;99.90
23137;DHT22;11737;50.558;7.258;2023-02-01T03:43:55;9.50;99.90
23137;DHT22;11737;50.558;7.258;2023-02-01T03:46:27;9.50;99.90
23137;DHT22;11737;50.558;7.258;2023-02-01T03:48:55;9.60;99.90
23137;DHT22;11737;50.558;7.258;2023-02-01T03:51:24;9.60;99.90
23137;DHT22;11737;50.558;7.258;2023-02-01T03:53:53;9.60;99.90
23137;DHT22;11737;50.558;7.258;2023-02-01T03:56:22;9.60;99.90
23137;DHT22;11737;50.558;7.258;2023-02-01T03:58:51;9.70;99.90
23137;DHT22;11737;50.558;7.258;2023-02-01T04:01:29;9.70;99.90
23137;DHT22;11737;50.558;7.258;2023-02-01T04:03:58;9.60;99.90
23137;DHT22;11737;50.558;7.258;2023-02-01T04:06:26;9.60;99.90
23137;DHT22;11737;50.558;7.258;2023-02-01T04:08:54;9.70;99.90
23137;DHT22;11737;50.558;7.258;2023-02-01T04:11:21;9.70;99.90
23137;DHT22;11737;50.558;7.258;2023-02-01T04:13:49;9.70;99.90
23137;DHT22;11737;50.558;7.258;2023-02-01T04:16:16;9.70;99.90
23137;DHT22;11737;50.558;7.258;2023-02-01T04:18:44;9.70;99.90
23137;DHT22;11737;50.558;7.258;2023-02-01T04:21:11;9.60;99.90
23137;DHT22;11737;50.558;7.258;2023-02-01T04:23:39;9.60;99.90
23137;DHT22;11737;50.558;7.258;2023-02-01T04:26:06;9.60;99.90
23137;DHT22;11737;50.558;7.258;2023-02-01T04:28:34;9.60;99.90
23137;DHT22;11737;50.558;7.258;2023-02-01T04:31:01;9.60;99.90
23137;DHT22;11737;50.558;7.258;2023-02-01T04:33:29;9.50;99.90
23137;DHT22;11737;50.558;7.258;2023-02-01T04:35:56;9.50;99.90
23137;DHT22;11737;50.558;7.258;2023-02-01T04:38:24;9.50;99.90
23137;DHT22;11737;50.558;7.258;2023-02-01T04:40:51;9.40;99.90
23137;DHT22;11737;50.558;7.258;2023-02-01T04:43:19;9.40;99.90
23137;DHT22;11737;50.558;7.258;2023-02-01T04:45:50;9.40;99.90
23137;DHT22;11737;50.558;7.258;2023-02-01T04:48:18;9.30;99.90
23137;DHT22;11737;50.558;7.258;2023-02-01T04:50:48;9.20;99.90
23137;DHT22;11737;50.558;7.258;2023-02-01T04:53:16;9.10;99.90
23137;DHT22;11737;50.558;7.258;2023-02-01T04:55:44;8.90;99.90
23137;DHT22;11737;50.558;7.258;2023-02-01T04:58:12;8.90;99.90
23137;DHT22;11737;50.558;7.258;2023-02-01T05:00:39;8.80;99.90
23137;DHT22;11737;50.558;7.258;2023-02-01T05:03:07;8.80;99.90
23137;DHT22;11737;50.558;7.258;2023-02-01T05:05:35;8.80;99.90
23137;DHT22;11737;50.558;7.258;2023-02-01T05:08:02;8.80;99.90
23137;DHT22;11737;50.558;7.258;2023-02-01T05:10:30;8.70;99.90
23137;DHT22;11737;50.558;7.258;2023-02-01T05:12:57;8.60;99.90
23137;DHT22;11737;50.558;7.258;2023-02-01T05:15:43;8.60;99.90
23137;DHT22;11737;50.558;7.258;2023-02-01T05:18:13;8.40;99.90
23137;DHT22;11737;50.558;7.258;2023-02-01T05:20:40;8.30;99.90
23137;DHT22;11737;50.558;7.258;2023-02-01T05:23:08;8.30;99.90
23137;DHT22;11737;50.558;7.258;2023-02-01T05:25:35;8.30;99.90
23137;DHT22;11737;50.558;7.258;2023-02-01T05:28:03;8.40;99.90
23137;DHT22;11737;50.558;7.258;2023-02-01T05:30:30;8.30;99.90
23137;DHT22;11737;50.558;7.258;2023-02-01T05:32:58;8.20;99.90
23137;DHT22;11737;50.558;7.258;2023-02-01T05:35:26;8.20;99.90
23137;DHT22;11737;50.558;7.258;2023-02-01T05:37:53;8.20;99.90
23137;DHT22;11737;50.558;7.258;2023-02-01T05:40:21;8.10;99.90
23137;DHT22;11737;50.558;7.258;2023-02-01T05:42:48;8.10;99.90
23137;DHT22;11737;50.558;7.258;2023-02-01T05:45:16;8.10;99.90
23137;DHT22;11737;50.558;7.258;2023-02-01T05:47:43;8.20;99.90
23137;DHT22;11737;50.558;7.258;2023-02-01T05:50:11;8.20;99.90
23137;DHT22;11737;50.558;7.258;2023-02-01T05:52:38;8.20;99.90
23137;DHT22;11737;50.558;7.258;2023-02-01T05:55:06;8.10;99.90
23137;DHT22;11737;50.558;7.258;2023-02-01T05:57:34;8.20;99.90
23137;DHT22;11737;50.558;7.258;2023-02-01T06:00:02;8.20;99.90
23137;DHT22;11737;50.558;7.258;2023-02-01T06:02:29;8.10;99.90
23137;DHT22;11737;50.558;7.258;2023-02-01T06:04:57;8.10;99.90
23137;DHT22;11737;50.558;7.258;2023-02-01T06:07:24;8.20;99.90
23137;DHT22;11737;50.558;7.258;2023-02-01T06:09:52;8.20;99.90
23137;DHT22;11737;50.558;7.258;2023-02-01T06:12:19;8.20;99.90
23137;DHT22;11737;50.558;7.258;2023-02-01T06:14:47;8.30;99.90
23137;DHT22;11737;50.558;7.258;2023-02-01T06:17:14;8.10;99.90
23137;DHT22;11737;50.558;7.258;2023-02-01T06:19:42;8.10;99.90
23137;DHT22;11737;50.558;7.258;2023-02-01T06:22:11;8.00;99.90
23137;DHT22;11737;50.558;7.258;2023-02-01T06:24:38;7.90;99.90
23137;DHT22;11737;50.558;7.258;2023-02-01T06:27:07;7.80;99.90
23137;DHT22;11737;50.558;7.258;2023-02-01T06:29:36;7.80;99.90
23137;DHT22;11737;50.558;7.258;2023-02-01T06:32:03;7.70;99.90
23137;DHT22;11737;50.558;7.258;2023-02-01T06:34:31;7.70;99.90
23137;DHT22;11737;50.558;7.258;2023-02-01T06:36:58;7.70;99.90
23137;DHT22;11737;50.558;7.258;2023-02-01T06:39:26;7.70;99.90
23137;DHT22;11737;50.558;7.258;2023-02-01T06:41:54;7.60;99.90
23137;DHT22;11737;50.558;7.258;2023-02-01T06:44:22;7.50;99.90
23137;DHT22;11737;50.558;7.258;2023-02-01T06:46:49;7.40;99.90
23137;DHT22;11737;50.558;7.258;2023-02-01T06:49:17;7.50;99.90
23137;DHT22;11737;50.558;7.258;2023-02-01T06:51:46;7.40;99.90
23137;DHT22;11737;50.558;7.258;2023-02-01T06:54:13;7.40;99.90
23137;DHT22;11737;50.558;7.258;2023-02-01T06:56:41;7.40;99.90
23137;DHT22;11737;50.558;7.258;2023-02-01T06:59:09;7.30;99.90
23137;DHT22;11737;50.558;7.258;2023-02-01T07:01:37;7.30;99.90
23137;DHT22;11737;50.558;7.258;2023-02-01T07:04:04;7.30;99.90
23137;DHT22;11737;50.558;7.258;2023-02-01T07:06:32;7.20;99.90
23137;DHT22;11737;50.558;7.258;2023-02-01T07:08:59;7.20;99.90
23137;DHT22;11737;50.558;7.258;2023-02-01T07:11:27;7.10;99.90
23137;DHT22;11737;50.558;7.258;2023-02-01T07:13:54;7.00;99.90
23137;DHT22;11737;50.558;7.258;2023-02-01T07:16:22;7.00;99.90
23137;DHT22;11737;50.558;7.258;2023-02-01T07:18:51;6.90;99.90
23137;DHT22;11737;50.558;7.258;2023-02-01T07:24:07;7.10;99.90
23137;DHT22;11737;50.558;7.258;2023-02-01T07:26:35;7.30;99.90
23137;DHT22;11737;50.558;7.258;2023-02-01T07:29:02;7.50;99.90
23137;DHT22;11737;50.558;7.258;2023-02-01T07:31:30;7.50;99.90
23137;DHT22;11737;50.558;7.258;2023-02-01T07:33:57;7.60;99.90
23137;DHT22;11737;50.558;7.258;2023-02-01T07:36:25;7.60;99.90
23137;DHT22;11737;50.558;7.258;2023-02-01T07:38:52;7.60;99.90
23137;DHT22;11737;50.558;7.258;2023-02-01T07:41:20;7.70;99.90
23137;DHT22;11737;50.558;7.258;2023-02-01T07:43:47;7.80;99.90
23137;DHT22;11737;50.558;7.258;2023-02-01T07:46:16;7.90;99.90
23137;DHT22;11737;50.558;7.258;2023-02-01T07:48:44;8.10;99.90
23137;DHT22;11737;50.558;7.258;2023-02-01T07:51:14;8.30;99.90
23137;DHT22;11737;50.558;7.258;2023-02-01T07:53:42;8.40;99.90
23137;DHT22;11737;50.558;7.258;2023-02-01T07:56:20;8.50;99.90
23137;DHT22;11737;50.558;7.258;2023-02-01T07:58:50;8.60;99.90
23137;DHT22;11737;50.558;7.258;2023-02-01T08:01:20;8.70;99.90
23137;DHT22;11737;50.558;7.258;2023-02-01T08:04:00;8.70;99.90
23137;DHT22;11737;50.558;7.258;2023-02-01T08:06:31;8.70;99.90
23137;DHT22;11737;50.558;7.258;2023-02-01T08:08:59;8.70;99.90
23137;DHT22;11737;50.558;7.258;2023-02-01T08:11:26;8.70;99.90
23137;DHT22;11737;50.558;7.258;2023-02-01T08:13:54;8.70;99.90
23137;DHT22;11737;50.558;7.258;2023-02-01T08:16:22;8.70;99.90
23137;DHT22;11737;50.558;7.258;2023-02-01T08:18:51;8.60;99.90
23137;DHT22;11737;50.558;7.258;2023-02-01T08:21:24;8.50;99.90
23137;DHT22;11737;50.558;7.258;2023-02-01T08:24:11;8.50;99.90
23137;DHT22;11737;50.558;7.258;2023-02-01T08:26:39;8.60;99.90
23137;DHT22;11737;50.558;7.258;2023-02-01T08:29:07;8.60;99.90
23137;DHT22;11737;50.558;7.258;2023-02-01T08:31:37;8.60;99.90
23137;DHT22;11737;50.558;7.258;2023-02-01T08:34:08;8.60;99.90
23137;DHT22;11737;50.558;7.258;2023-02-01T08:36:38;8.70;99.90
23137;DHT22;11737;50.558;7.258;2023-02-01T08:39:08;8.60;99.90
23137;DHT22;11737;50.558;7.258;2023-02-01T08:41:36;8.70;99.90
23137;DHT22;11737;50.558;7.258;2023-02-01T08:44:04;8.90;99.90
23137;DHT22;11737;50.558;7.258;2023-02-01T08:46:31;9.00;99.90
23137;DHT22;11737;50.558;7.258;2023-02-01T08:48:59;9.10;99.90
23137;DHT22;11737;50.558;7.258;2023-02-01T08:51:26;9.20;99.90
23137;DHT22;11737;50.558;7.258;2023-02-01T08:53:54;9.20;99.90
23137;DHT22;11737;50.558;7.258;2023-02-01T08:56:21;9.40;99.90
23137;DHT22;11737;50.558;7.258;2023-02-01T08:58:49;9.50;99.90
23137;DHT22;11737;50.558;7.258;2023-02-01T09:01:17;9.50;99.90
23137;DHT22;11737;50.558;7.258;2023-02-01T09:03:44;9.60;99.90
23137;DHT22;11737;50.558;7.258;2023-02-01T09:06:14;9.70;99.90
23137;DHT22;11737;50.558;7.258;2023-02-01T09:08:42;9.80;99.90
23137;DHT22;11737;50.558;7.258;2023-02-01T09:11:15;9.80;99.90
23137;DHT22;11737;50.558;7.258;2023-02-01T09:13:43;9.80;99.90
23137;DHT22;11737;50.558;7.258;2023-02-01T09:16:11;9.80;99.90
23137;DHT22;11737;50.558;7.258;2023-02-01T09:18:39;9.90;99.90
23137;DHT22;11737;50.558;7.258;2023-02-01T09:21:07;10.00;99.90
23137;DHT22;11737;50.558;7.258;2023-02-01T09:23:35;10.00;99.90
23137;DHT22;11737;50.558;7.258;2023-02-01T09:26:03;10.10;99.90
23137;DHT22;11737;50.558;7.258;2023-02-01T09:28:32;10.10;99.90
23137;DHT22;11737;50.558;7.258;2023-02-01T09:31:00;10.20;99.90
23137;DHT22;11737;50.558;7.258;2023-02-01T09:33:28;10.20;99.90
23137;DHT22;11737;50.558;7.258;2023-02-01T09:36:03;10.10;99.90
23137;DHT22;11737;50.558;7.258;2023-02-01T09:38:28;10.00;99.90
23137;DHT22;11737;50.558;7.258;2023-02-01T09:40:56;10.00;99.90
23137;DHT22;11737;50.558;7.258;2023-02-01T09:46:21;10.00;99.90
23137;DHT22;11737;50.558;7.258;2023-02-01T09:48:55;10.00;99.90
23137;DHT22;11737;50.558;7.258;2023-02-01T09:51:30;10.00;99.90
23137;DHT22;11737;50.558;7.258;2023-02-01T09:54:16;10.10;99.90
23137;DHT22;11737;50.558;7.258;2023-02-01T09:59:43;10.20;99.90
23137;DHT22;11737;50.558;7.258;2023-02-01T10:02:23;10.20;99.90
23137;DHT22;11737;50.558;7.258;2023-02-01T10:04:56;10.20;99.90
23137;DHT22;11737;50.558;7.258;2023-02-01T10:07:37;10.30;99.90
23137;DHT22;11737;50.558;7.258;2023-02-01T10:10:20;10.30;99.90
23137;DHT22;11737;50.558;7.258;2023-02-01T10:16:12;10.20;99.90
23137;DHT22;11737;50.558;7.258;2023-02-01T10:19:17;10.20;99.90
23137;DHT22;11737;50.558;7.258;2023-02-01T10:24:45;10.40;99.90
23137;DHT22;11737;50.558;7.258;2023-02-01T10:27:22;10.50;99.90
23137;DHT22;11737;50.558;7.258;2023-02-01T10:32:41;10.80;99.90
23137;DHT22;11737;50.558;7.258;2023-02-01T10:37:41;10.90;99.90
23137;DHT22;11737;50.558;7.258;2023-02-01T10:40:24;11.10;99.90
23137;DHT22;11737;50.558;7.258;2023-02-01T10:42:54;11.00;99.90
23137;DHT22;11737;50.558;7.258;2023-02-01T10:45:37;11.10;99.90
23137;DHT22;11737;50.558;7.258;2023-02-01T10:48:07;11.10;99.90
23137;DHT22;11737;50.558;7.258;2023-02-01T10:56:13;11.40;99.90
23137;DHT22;11737;50.558;7.258;2023-02-01T10:58:46;11.40;99.90
23137;DHT22;11737;50.558;7.258;2023-02-01T11:01:23;11.40;99.90
23137;DHT22;11737;50.558;7.258;2023-02-01T11:03:58;11.40;99.90
23137;DHT22;11737;50.558;7.258;2023-02-01T11:09:22;11.40;99.90
23137;DHT22;11737;50.558;7.258;2023-02-01T11:11:54;11.50;99.90
23137;DHT22;11737;50.558;7.258;2023-02-01T11:14:44;11.60;99.90
23137;DHT22;11737;50.558;7.258;2023-02-01T11:17:21;11.70;99.90
23137;DHT22;11737;50.558;7.258;2023-02-01T11:19:31;11.80;99.90
23137;DHT22;11737;50.558;7.258;2023-02-01T11:22:00;12.00;99.90
23137;DHT22;11737;50.558;7.258;2023-02-01T11:24:32;12.20;99.90
23137;DHT22;11737;50.558;7.258;2023-02-01T11:27:12;12.40;99.90
23137;DHT22;11737;50.558;7.258;2023-02-01T11:29:38;12.40;99.90
23137;DHT22;11737;50.558;7.258;2023-02-01T11:32:08;12.30;99.90
23137;DHT22;11737;50.558;7.258;2023-02-01T11:34:42;12.10;99.90
23137;DHT22;11737;50.558;7.258;2023-02-01T11:37:25;12.00;99.90
23137;DHT22;11737;50.558;7.258;2023-02-01T11:39:57;11.90;99.90
23137;DHT22;11737;50.558;7.258;2023-02-01T11:42:27;11.90;99.90
23137;DHT22;11737;50.558;7.258;2023-02-01T11:48:10;11.90;99.90
23137;DHT22;11737;50.558;7.258;2023-02-01T11:51:07;11.80;99.90
23137;DHT22;11737;50.558;7.258;2023-02-01T12:10:28;12.00;99.90
23137;DHT22;11737;50.558;7.258;2023-02-01T12:13:01;12.10;99.90
23137;DHT22;11737;50.558;7.258;2023-02-01T12:18:35;12.20;99.90
23137;DHT22;11737;50.558;7.258;2023-02-01T12:24:22;12.00;99.90
23137;DHT22;11737;50.558;7.258;2023-02-01T12:27:00;11.90;99.90
23137;DHT22;11737;50.558;7.258;2023-02-01T12:32:37;11.90;99.90
23137;DHT22;11737;50.558;7.258;2023-02-01T12:41:19;11.80;99.90
23137;DHT22;11737;50.558;7.258;2023-02-01T12:44:17;11.90;99.90
23137;DHT22;11737;50.558;7.258;2023-02-01T12:46:37;11.90;99.90
23137;DHT22;11737;50.558;7.258;2023-02-01T12:52:02;12.20;99.90
23137;DHT22;11737;50.558;7.258;2023-02-01T12:57:11;12.00;99.90
23137;DHT22;11737;50.558;7.258;2023-02-01T12:59:49;12.10;99.90
23137;DHT22;11737;50.558;7.258;2023-02-01T13:02:33;12.00;99.90
23137;DHT22;11737;50.558;7.258;2023-02-01T13:05:21;12.00;99.90
23137;DHT22;11737;50.558;7.258;2023-02-01T13:08:03;11.90;99.90
23137;DHT22;11737;50.558;7.258;2023-02-01T13:10:41;11.90;99.90
23137;DHT22;11737;50.558;7.258;2023-02-01T13:18:25;11.70;99.90
23137;DHT22;11737;50.558;7.258;2023-02-01T13:20:58;11.60;99.90
23137;DHT22;11737;50.558;7.258;2023-02-01T13:23:27;11.40;99.90
23137;DHT22;11737;50.558;7.258;2023-02-01T13:25:55;11.50;99.90
23137;DHT22;11737;50.558;7.258;2023-02-01T13:37:09;11.30;99.90
23137;DHT22;11737;50.558;7.258;2023-02-01T13:42:34;11.40;99.90
23137;DHT22;11737;50.558;7.258;2023-02-01T13:45:01;11.30;99.90
23137;DHT22;11737;50.558;7.258;2023-02-01T13:47:38;11.30;99.90
23137;DHT22;11737;50.558;7.258;2023-02-01T13:50:13;11.30;99.90
23137;DHT22;11737;50.558;7.258;2023-02-01T13:52:39;11.30;99.90
23137;DHT22;11737;50.558;7.258;2023-02-01T14:00:37;11.00;99.90
23137;DHT22;11737;50.558;7.258;2023-02-01T14:03:16;11.00;99.90
23137;DHT22;11737;50.558;7.258;2023-02-01T14:06:03;11.00;99.90
23137;DHT22;11737;50.558;7.258;2023-02-01T14:08:40;11.00;99.90
23137;DHT22;11737;50.558;7.258;2023-02-01T14:16:35;10.90;99.90
23137;DHT22;11737;50.558;7.258;2023-02-01T14:19:07;10.90;99.90
23137;DHT22;11737;50.558;7.258;2023-02-01T14:21:35;10.90;99.90
23137;DHT22;11737;50.558;7.258;2023-02-01T14:27:19;10.90;99.90
23137;DHT22;11737;50.558;7.258;2023-02-01T14:29:57;10.80;99.90
23137;DHT22;11737;50.558;7.258;2023-02-01T14:32:46;10.80;99.90
23137;DHT22;11737;50.558;7.258;2023-02-01T14:35:24;10.80;99.90
23137;DHT22;11737;50.558;7.258;2023-02-01T14:37:58;10.80;99.90
23137;DHT22;11737;50.558;7.258;2023-02-01T14:40:26;10.90;99.90
23137;DHT22;11737;50.558;7.258;2023-02-01T14:42:54;10.90;99.90
23137;DHT22;11737;50.558;7.258;2023-02-01T14:50:38;10.90;99.90
23137;DHT22;11737;50.558;7.258;2023-02-01T14:55:46;10.90;99.90
23137;DHT22;11737;50.558;7.258;2023-02-01T14:58:16;10.90;99.90
23137;DHT22;11737;50.558;7.258;2023-02-01T15:00:58;11.00;99.90
23137;DHT22;11737;50.558;7.258;2023-02-01T15:03:43;11.00;99.90
23137;DHT22;11737;50.558;7.258;2023-02-01T15:06:38;11.00;99.90
23137;DHT22;11737;50.558;7.258;2023-02-01T15:09:31;11.00;99.90
23137;DHT22;11737;50.558;7.258;2023-02-01T15:12:08;11.00;99.90
23137;DHT22;11737;50.558;7.258;2023-02-01T15:14:36;11.10;99.90
23137;DHT22;11737;50.558;7.258;2023-02-01T15:20:19;11.10;99.90
23137;DHT22;11737;50.558;7.258;2023-02-01T15:23:03;11.10;99.90
23137;DHT22;11737;50.558;7.258;2023-02-01T15:25:34;11.20;99.90
23137;DHT22;11737;50.558;7.258;2023-02-01T15:28:04;11.20;99.90
23137;DHT22;11737;50.558;7.258;2023-02-01T15:30:36;11.20;99.90
23137;DHT22;11737;50.558;7.258;2023-02-01T15:35:47;11.20;99.90
23137;DHT22;11737;50.558;7.258;2023-02-01T15:38:21;11.30;99.90
23137;DHT22;11737;50.558;7.258;2023-02-01T15:41:11;11.20;99.90
23137;DHT22;11737;50.558;7.258;2023-02-01T15:46:31;11.10;99.90
23137;DHT22;11737;50.558;7.258;2023-02-01T15:48:58;11.10;99.90
23137;DHT22;11737;50.558;7.258;2023-02-01T15:51:29;11.10;99.90
23137;DHT22;11737;50.558;7.258;2023-02-01T15:54:04;11.10;99.90
23137;DHT22;11737;50.558;7.258;2023-02-01T15:56:37;11.10;99.90
23137;DHT22;11737;50.558;7.258;2023-02-01T15:59:12;11.20;99.90
23137;DHT22;11737;50.558;7.258;2023-02-01T16:01:38;11.10;99.90
23137;DHT22;11737;50.558;7.258;2023-02-01T16:04:16;11.00;99.90
23137;DHT22;11737;50.558;7.258;2023-02-01T16:06:54;11.00;99.90
23137;DHT22;11737;50.558;7.258;2023-02-01T16:09:24;11.10;99.90
23137;DHT22;11737;50.558;7.258;2023-02-01T16:12:01;11.10;99.90
23137;DHT22;11737;50.558;7.258;2023-02-01T16:14:30;11.10;99.90
23137;DHT22;11737;50.558;7.258;2023-02-01T16:16:58;11.10;99.90
23137;DHT22;11737;50.558;7.258;2023-02-01T16:19:26;10.90;99.90
23137;DHT22;11737;50.558;7.258;2023-02-01T16:21:55;10.80;99.90
23137;DHT22;11737;50.558;7.258;2023-02-01T16:24:22;10.60;99.90
23137;DHT22;11737;50.558;7.258;2023-02-01T16:26:52;10.30;99.90
23137;DHT22;11737;50.558;7.258;2023-02-01T16:29:19;10.00;99.90
23137;DHT22;11737;50.558;7.258;2023-02-01T16:31:49;9.80;99.90
23137;DHT22;11737;50.558;7.258;2023-02-01T16:34:18;9.70;99.90
23137;DHT22;11737;50.558;7.258;2023-02-01T16:36:49;9.60;99.90
23137;DHT22;11737;50.558;7.258;2023-02-01T16:39:19;9.40;99.90
23137;DHT22;11737;50.558;7.258;2023-02-01T16:41:47;9.30;99.90
23137;DHT22;11737;50.558;7.258;2023-02-01T16:44:15;9.30;99.90
23137;DHT22;11737;50.558;7.258;2023-02-01T16:46:44;9.10;99.90
23137;DHT22;11737;50.558;7.258;2023-02-01T16:49:21;9.00;99.90
23137;DHT22;11737;50.558;7.258;2023-02-01T16:51:51;9.10;99.90
23137;DHT22;11737;50.558;7.258;2023-02-01T16:54:22;9.00;99.90
23137;DHT22;11737;50.558;7.258;2023-02-01T16:56:50;8.90;99.90
23137;DHT22;11737;50.558;7.258;2023-02-01T16:59:17;8.90;99.90
23137;DHT22;11737;50.558;7.258;2023-02-01T17:01:45;8.90;99.90
23137;DHT22;11737;50.558;7.258;2023-02-01T17:04:12;8.80;99.90
23137;DHT22;11737;50.558;7.258;2023-02-01T17:06:42;8.80;99.90
23137;DHT22;11737;50.558;7.258;2023-02-01T17:09:11;8.80;99.90
23137;DHT22;11737;50.558;7.258;2023-02-01T17:11:38;8.90;99.90
23137;DHT22;11737;50.558;7.258;2023-02-01T17:14:17;8.90;99.90
23137;DHT22;11737;50.558;7.258;2023-02-01T17:16:46;8.80;99.90
23137;DHT22;11737;50.558;7.258;2023-02-01T17:19:17;8.90;99.90
23137;DHT22;11737;50.558;7.258;2023-02-01T17:21:47;8.90;99.90
23137;DHT22;11737;50.558;7.258;2023-02-01T17:24:23;8.80;99.90
23137;DHT22;11737;50.558;7.258;2023-02-01T17:26:50;8.80;99.90
23137;DHT22;11737;50.558;7.258;2023-02-01T17:29:18;8.80;99.90
23137;DHT22;11737;50.558;7.258;2023-02-01T17:31:49;8.80;99.90
23137;DHT22;11737;50.558;7.258;2023-02-01T17:34:17;8.90;99.90
23137;DHT22;11737;50.558;7.258;2023-02-01T17:36:46;9.00;99.90
23137;DHT22;11737;50.558;7.258;2023-02-01T17:39:15;9.10;99.90
23137;DHT22;11737;50.558;7.258;2023-02-01T17:42:01;9.10;99.90
23137;DHT22;11737;50.558;7.258;2023-02-01T17:44:30;8.90;99.90
23137;DHT22;11737;50.558;7.258;2023-02-01T17:46:58;8.80;99.90
23137;DHT22;11737;50.558;7.258;2023-02-01T17:49:26;8.70;99.90
23137;DHT22;11737;50.558;7.258;2023-02-01T17:51:56;8.70;99.90
23137;DHT22;11737;50.558;7.258;2023-02-01T17:54:24;8.90;99.90
23137;DHT22;11737;50.558;7.258;2023-02-01T17:56:52;8.80;99.90
23137;DHT22;11737;50.558;7.258;2023-02-01T17:59:19;8.80;99.90
23137;DHT22;11737;50.558;7.258;2023-02-01T18:01:47;8.80;99.90
23137;DHT22;11737;50.558;7.258;2023-02-01T18:04:17;8.80;99.90
23137;DHT22;11737;50.558;7.258;2023-02-01T18:06:45;8.80;99.90
23137;DHT22;11737;50.558;7.258;2023-02-01T18:09:13;8.70;99.90
23137;DHT22;11737;50.558;7.258;2023-02-01T18:11:41;8.70;99.90
23137;DHT22;11737;50.558;7.258;2023-02-01T18:14:12;8.70;99.90
23137;DHT22;11737;50.558;7.258;2023-02-01T18:16:59;8.80;99.90
23137;DHT22;11737;50.558;7.258;2023-02-01T18:19:27;8.70;99.90
23137;DHT22;11737;50.558;7.258;2023-02-01T18:21:55;8.70;99.90
23137;DHT22;11737;50.558;7.258;2023-02-01T18:24:23;8.70;99.90
23137;DHT22;11737;50.558;7.258;2023-02-01T18:26:52;8.70;99.90
23137;DHT22;11737;50.558;7.258;2023-02-01T18:29:20;8.60;99.90
23137;DHT22;11737;50.558;7.258;2023-02-01T18:34:37;8.60;99.90